Time;durP1;ratioP1;P1;durP2;ratioP2;P2;SDS_P1;SDS_P2;PMS_P1;PMS_P2;Temp;Humidity;BMP_temperature;BMP_pressure;BME280_temperature;BME280_humidity;BME280_pressure;Samples;Min_cycle;Max_cycle;Signal;HPM_P1;HPM_P2
2023/06/26 00:00:33;;;;;;;10.35;6.78;;;;;;;;;;4940554;28;20039;-64
2023/06/26 00:02:59;;;;;;;8.30;6.60;;;;;;;;;;4941161;28;20043;-64
2023/06/26 00:05:24;;;;;;;8.30;6.20;;;;;;;;;;4928546;28;20035;-63
2023/06/26 00:07:49;;;;;;;8.88;6.10;;;;;;;;;;4939661;28;20035;-63
2023/06/26 00:10:15;;;;;;;9.02;6.40;;;;;;;;;;4923197;28;20049;-63
2023/06/26 00:12:40;;;;;;;9.63;6.43;;;;;;;;;;4939998;28;20035;-64
2023/06/26 00:15:07;;;;;;;9.10;6.28;;;;;;;;;;4919282;28;20043;-64
2023/06/26 00:17:36;;;;;;;9.35;6.78;;;;;;;;;;4937906;28;20140;-64
2023/06/26 00:20:02;;;;;;;10.77;6.93;;;;;;;;;;4937122;28;20555;-63
2023/06/26 00:22:30;;;;;;;8.82;7.05;;;;;;;;;;4939017;28;20039;-63
2023/06/26 00:24:55;;;;;;;10.70;6.82;;;;;;;;;;4940845;28;20085;-63
2023/06/26 00:27:20;;;;;;;11.40;7.25;;;;;;;;;;4940243;28;20044;-64
2023/06/26 00:29:46;;;;;;;9.68;6.90;;;;;;;;;;4940205;28;20051;-63
2023/06/26 00:32:11;;;;;;;12.15;7.60;;;;;;;;;;4938873;28;20034;-64
2023/06/26 00:34:36;;;;;;;11.55;7.50;;;;;;;;;;4939970;28;20050;-64
2023/06/26 00:37:02;;;;;;;9.80;7.40;;;;;;;;;;4939035;28;20491;-63
2023/06/26 00:39:27;;;;;;;11.02;7.65;;;;;;;;;;4937527;28;20035;-63
2023/06/26 00:41:54;;;;;;;11.90;7.95;;;;;;;;;;4940794;28;20045;-64
2023/06/26 00:44:19;;;;;;;11.13;7.35;;;;;;;;;;4939603;28;20045;-68
2023/06/26 00:46:45;;;;;;;12.60;6.93;;;;;;;;;;4920890;28;20042;-68
2023/06/26 00:49:11;;;;;;;11.77;7.38;;;;;;;;;;4937438;28;20070;-68
2023/06/26 00:51:36;;;;;;;10.07;6.75;;;;;;;;;;4917746;28;20040;-68
2023/06/26 00:54:01;;;;;;;12.73;6.80;;;;;;;;;;4938564;28;20692;-67
2023/06/26 00:56:27;;;;;;;14.38;7.05;;;;;;;;;;4938537;28;20058;-66
2023/06/26 00:58:55;;;;;;;11.02;7.13;;;;;;;;;;4938456;28;20039;-67
2023/06/26 01:01:21;;;;;;;12.98;7.55;;;;;;;;;;4938882;28;20559;-68
2023/06/26 01:03:51;;;;;;;12.48;7.15;;;;;;;;;;4934368;28;20568;-67
2023/06/26 01:06:17;;;;;;;13.25;7.43;;;;;;;;;;4936212;28;20167;-67
2023/06/26 01:08:45;;;;;;;12.60;7.28;;;;;;;;;;4938911;28;20788;-68
2023/06/26 01:11:11;;;;;;;20.08;8.00;;;;;;;;;;4916636;28;20042;-69
2023/06/26 01:13:36;;;;;;;16.65;7.32;;;;;;;;;;4938956;28;20046;-67
2023/06/26 01:16:02;;;;;;;19.70;7.32;;;;;;;;;;4938123;28;20046;-68
2023/06/26 01:18:28;;;;;;;20.85;8.02;;;;;;;;;;4938908;28;20041;-67
2023/06/26 01:20:54;;;;;;;20.10;7.72;;;;;;;;;;4920837;28;20507;-68
2023/06/26 01:23:28;;;;;;;23.77;7.35;;;;;;;;;;4938168;28;20034;-67
2023/06/26 01:25:59;;;;;;;18.92;7.90;;;;;;;;;;4938796;28;20511;-67
2023/06/26 01:28:24;;;;;;;23.40;8.23;;;;;;;;;;4917791;28;20105;-68
2023/06/26 01:30:50;;;;;;;19.20;7.90;;;;;;;;;;4939846;28;20043;-67
2023/06/26 01:33:16;;;;;;;26.38;8.35;;;;;;;;;;4937346;28;20046;-68
2023/06/26 01:35:41;;;;;;;24.00;8.30;;;;;;;;;;4939383;28;20031;-67
2023/06/26 01:38:16;;;;;;;23.35;8.23;;;;;;;;;;4932528;28;20042;-68
2023/06/26 01:40:43;;;;;;;27.40;8.05;;;;;;;;;;4923590;28;20043;-69
2023/06/26 01:43:12;;;;;;;23.63;8.05;;;;;;;;;;4939677;28;22806;-68
2023/06/26 01:45:38;;;;;;;25.15;7.72;;;;;;;;;;4938900;28;20492;-67
2023/06/26 01:48:06;;;;;;;22.50;7.75;;;;;;;;;;4938674;28;20142;-68
2023/06/26 01:50:33;;;;;;;21.08;7.70;;;;;;;;;;4938487;28;20240;-68
2023/06/26 01:53:04;;;;;;;25.88;8.90;;;;;;;;;;4937897;28;20036;-66
2023/06/26 01:55:38;;;;;;;26.45;8.35;;;;;;;;;;4937563;28;20031;-68
2023/06/26 01:58:03;;;;;;;21.35;8.25;;;;;;;;;;4922373;28;20572;-68
2023/06/26 02:00:31;;;;;;;24.20;7.82;;;;;;;;;;4938158;28;20137;-66
2023/06/26 02:02:57;;;;;;;27.92;9.13;;;;;;;;;;4939153;28;20546;-67
2023/06/26 02:05:23;;;;;;;24.38;8.70;;;;;;;;;;4938385;28;20038;-68
2023/06/26 02:07:49;;;;;;;24.35;7.90;;;;;;;;;;4939634;28;20534;-69
2023/06/26 02:10:14;;;;;;;25.42;7.60;;;;;;;;;;4938926;28;20035;-68
2023/06/26 02:12:40;;;;;;;24.13;7.47;;;;;;;;;;4920226;28;20034;-68
2023/06/26 02:15:05;;;;;;;26.60;8.18;;;;;;;;;;4943079;28;20031;-67
2023/06/26 02:17:31;;;;;;;30.55;8.18;;;;;;;;;;4941712;28;20039;-67
2023/06/26 02:19:56;;;;;;;26.98;8.32;;;;;;;;;;4944377;28;20030;-67
2023/06/26 02:22:21;;;;;;;20.75;8.52;;;;;;;;;;4920579;28;20523;-67
2023/06/26 02:24:46;;;;;;;24.10;8.38;;;;;;;;;;4921570;28;20027;-68
2023/06/26 02:27:12;;;;;;;19.88;7.22;;;;;;;;;;4921615;28;20108;-66
2023/06/26 02:29:38;;;;;;;20.27;8.05;;;;;;;;;;4941644;28;20062;-67
2023/06/26 02:32:03;;;;;;;18.90;7.65;;;;;;;;;;4942189;28;20070;-68
2023/06/26 02:34:30;;;;;;;18.45;6.97;;;;;;;;;;4925482;28;20034;-68
2023/06/26 02:36:56;;;;;;;19.85;7.72;;;;;;;;;;4942543;28;20801;-67
2023/06/26 02:39:21;;;;;;;19.17;7.28;;;;;;;;;;4926344;28;20047;-68
2023/06/26 02:41:47;;;;;;;22.65;6.93;;;;;;;;;;4942224;28;20035;-66
2023/06/26 02:44:12;;;;;;;19.77;7.00;;;;;;;;;;4942152;28;20063;-68
2023/06/26 02:46:38;;;;;;;17.65;6.53;;;;;;;;;;4942303;28;20086;-68
2023/06/26 02:49:03;;;;;;;16.20;6.25;;;;;;;;;;4941757;28;20039;-66
2023/06/26 02:51:28;;;;;;;16.40;6.50;;;;;;;;;;4943213;28;20039;-67
2023/06/26 02:53:53;;;;;;;15.82;6.47;;;;;;;;;;4939262;28;20038;-68
2023/06/26 02:56:19;;;;;;;18.13;6.45;;;;;;;;;;4941929;28;20050;-68
2023/06/26 02:58:44;;;;;;;14.00;6.07;;;;;;;;;;4942537;28;20065;-67
2023/06/26 03:01:09;;;;;;;14.38;5.82;;;;;;;;;;4941737;28;20058;-67
2023/06/26 03:03:40;;;;;;;16.17;5.28;;;;;;;;;;4941900;28;20101;-66
2023/06/26 03:06:05;;;;;;;13.75;4.20;;;;;;;;;;4920244;28;20080;-67
2023/06/26 03:08:31;;;;;;;12.75;4.57;;;;;;;;;;4943598;28;20420;-68
2023/06/26 03:10:57;;;;;;;10.20;4.03;;;;;;;;;;4942032;28;20447;-66
2023/06/26 03:13:22;;;;;;;9.35;4.07;;;;;;;;;;4941754;28;20039;-66
2023/06/26 03:15:47;;;;;;;12.45;4.20;;;;;;;;;;4942756;28;20927;-67
2023/06/26 03:18:13;;;;;;;12.82;4.88;;;;;;;;;;4941172;28;20711;-67
2023/06/26 03:20:41;;;;;;;13.65;4.57;;;;;;;;;;4942258;28;20031;-67
2023/06/26 03:23:11;;;;;;;12.65;4.20;;;;;;;;;;4924896;28;20035;-67
2023/06/26 03:25:38;;;;;;;11.95;4.70;;;;;;;;;;4941587;28;20031;-66
2023/06/26 03:28:04;;;;;;;17.23;5.20;;;;;;;;;;4922836;28;20030;-67
2023/06/26 03:30:29;;;;;;;12.40;4.82;;;;;;;;;;4941674;28;20031;-67
2023/06/26 03:32:56;;;;;;;12.88;4.68;;;;;;;;;;4940498;28;20077;-68
2023/06/26 03:35:22;;;;;;;14.05;5.18;;;;;;;;;;4940513;28;20038;-67
2023/06/26 03:37:48;;;;;;;10.93;4.47;;;;;;;;;;4920812;28;20038;-67
2023/06/26 03:40:13;;;;;;;13.65;4.30;;;;;;;;;;4942618;28;20035;-65
2023/06/26 03:42:42;;;;;;;13.65;4.68;;;;;;;;;;4942206;28;20038;-66
2023/06/26 03:45:07;;;;;;;12.18;4.75;;;;;;;;;;4940274;28;20579;-68
2023/06/26 03:47:32;;;;;;;16.98;5.15;;;;;;;;;;4940508;28;20038;-67
2023/06/26 03:49:58;;;;;;;13.10;5.25;;;;;;;;;;4941280;28;20035;-67
2023/06/26 03:52:23;;;;;;;13.40;4.63;;;;;;;;;;4942449;28;20035;-65
2023/06/26 03:54:49;;;;;;;11.27;4.50;;;;;;;;;;4941598;28;20125;-67
2023/06/26 03:57:14;;;;;;;11.90;4.47;;;;;;;;;;4921854;28;20043;-67
2023/06/26 03:59:42;;;;;;;15.75;4.75;;;;;;;;;;4940278;28;20049;-67
2023/06/26 04:02:07;;;;;;;12.50;4.28;;;;;;;;;;4941938;28;20499;-67
2023/06/26 04:04:35;;;;;;;10.40;4.63;;;;;;;;;;4924362;28;20039;-68
2023/06/26 04:07:03;;;;;;;15.98;4.93;;;;;;;;;;4939116;28;20047;-67
2023/06/26 04:09:28;;;;;;;13.68;4.50;;;;;;;;;;4918984;28;20066;-68
2023/06/26 04:11:53;;;;;;;10.77;4.38;;;;;;;;;;4921935;28;20070;-68
2023/06/26 04:14:19;;;;;;;10.40;4.38;;;;;;;;;;4940561;28;20053;-69
2023/06/26 04:16:45;;;;;;;12.57;4.20;;;;;;;;;;4940176;28;20054;-67
2023/06/26 04:19:10;;;;;;;9.40;4.47;;;;;;;;;;4941101;28;20073;-69
2023/06/26 04:21:35;;;;;;;9.90;4.25;;;;;;;;;;4940720;28;20138;-68
2023/06/26 04:24:01;;;;;;;10.38;3.97;;;;;;;;;;4941033;28;21592;-67
2023/06/26 04:26:27;;;;;;;14.50;4.20;;;;;;;;;;4919336;28;20503;-68
2023/06/26 04:28:53;;;;;;;13.52;4.43;;;;;;;;;;4939993;28;20035;-67
2023/06/26 04:31:18;;;;;;;9.18;3.58;;;;;;;;;;4938301;28;20775;-65
2023/06/26 04:33:43;;;;;;;15.30;4.03;;;;;;;;;;4940276;28;20039;-67
2023/06/26 04:36:09;;;;;;;9.68;3.28;;;;;;;;;;4941797;28;20108;-66
2023/06/26 04:38:35;;;;;;;12.10;3.60;;;;;;;;;;4942873;28;20041;-69
2023/06/26 04:41:00;;;;;;;15.68;3.92;;;;;;;;;;4943288;28;20129;-67
2023/06/26 04:43:26;;;;;;;11.93;3.60;;;;;;;;;;4938600;28;20085;-66
2023/06/26 04:45:51;;;;;;;13.15;4.22;;;;;;;;;;4937942;28;20053;-65
2023/06/26 04:48:16;;;;;;;14.60;4.88;;;;;;;;;;4933050;28;20043;-67
2023/06/26 04:50:45;;;;;;;13.13;4.75;;;;;;;;;;4938882;28;20880;-67
2023/06/26 04:53:11;;;;;;;11.77;4.70;;;;;;;;;;4939787;28;20121;-67
2023/06/26 04:55:36;;;;;;;13.55;4.07;;;;;;;;;;4939895;28;20031;-67
2023/06/26 04:58:01;;;;;;;19.30;4.80;;;;;;;;;;4941811;28;20247;-67
2023/06/26 05:00:26;;;;;;;16.67;4.30;;;;;;;;;;4920569;28;20081;-67
2023/06/26 05:03:00;;;;;;;12.07;4.20;;;;;;;;;;4939945;28;20045;-67
2023/06/26 05:05:25;;;;;;;15.38;4.50;;;;;;;;;;4932632;28;20034;-67
2023/06/26 05:07:52;;;;;;;17.00;4.45;;;;;;;;;;4942834;28;20054;-67
2023/06/26 05:10:19;;;;;;;14.73;4.38;;;;;;;;;;4934512;28;20082;-67
2023/06/26 05:12:47;;;;;;;18.10;4.38;;;;;;;;;;4937398;28;20711;-66
2023/06/26 05:15:13;;;;;;;16.75;4.35;;;;;;;;;;4937618;28;20031;-71
2023/06/26 05:17:38;;;;;;;12.00;4.75;;;;;;;;;;4935531;28;20055;-68
2023/06/26 05:20:05;;;;;;;16.73;4.43;;;;;;;;;;4937274;28;20038;-69
2023/06/26 05:22:31;;;;;;;13.43;4.20;;;;;;;;;;4937532;28;20059;-67
2023/06/26 05:24:59;;;;;;;13.68;4.53;;;;;;;;;;4937473;28;20113;-69
2023/06/26 05:27:24;;;;;;;17.13;4.00;;;;;;;;;;4936512;28;20039;-69
2023/06/26 05:29:50;;;;;;;13.50;4.00;;;;;;;;;;4936659;28;20035;-70
2023/06/26 05:32:19;;;;;;;11.73;3.80;;;;;;;;;;4933638;28;20039;-70
2023/06/26 05:34:48;;;;;;;18.50;4.28;;;;;;;;;;4935990;28;20047;-69
2023/06/26 05:37:18;;;;;;;14.02;3.92;;;;;;;;;;4936823;28;20046;-71
2023/06/26 05:39:43;;;;;;;11.80;3.47;;;;;;;;;;4937704;28;20178;-70
2023/06/26 05:42:09;;;;;;;17.30;4.03;;;;;;;;;;4939995;28;20664;-70
2023/06/26 05:44:37;;;;;;;13.07;3.60;;;;;;;;;;4937576;28;20525;-68
2023/06/26 05:47:02;;;;;;;16.38;3.53;;;;;;;;;;4915647;28;20043;-71
2023/06/26 05:49:30;;;;;;;13.40;3.65;;;;;;;;;;4940872;28;20050;-68
2023/06/26 05:51:55;;;;;;;15.30;3.47;;;;;;;;;;4942776;28;20166;-68
2023/06/26 05:54:20;;;;;;;15.82;3.50;;;;;;;;;;4941999;28;20038;-70
2023/06/26 05:56:47;;;;;;;33.70;4.78;;;;;;;;;;4940573;28;20051;-70
2023/06/26 05:59:13;;;;;;;18.00;4.05;;;;;;;;;;4942193;28;20057;-69
2023/06/26 06:01:41;;;;;;;16.85;3.40;;;;;;;;;;4941915;28;20054;-69
2023/06/26 06:04:07;;;;;;;18.75;3.70;;;;;;;;;;4941401;28;20214;-69
2023/06/26 06:06:34;;;;;;;12.25;3.42;;;;;;;;;;4941644;28;20529;-67
2023/06/26 06:09:00;;;;;;;15.07;3.95;;;;;;;;;;4940502;28;20135;-69
2023/06/26 06:11:25;;;;;;;12.45;3.10;;;;;;;;;;4904491;28;20043;-68
2023/06/26 06:13:50;;;;;;;14.35;4.07;;;;;;;;;;4941867;28;20039;-68
2023/06/26 06:16:15;;;;;;;11.65;3.10;;;;;;;;;;4924995;28;20053;-69
2023/06/26 06:18:43;;;;;;;15.00;3.75;;;;;;;;;;4941702;28;20039;-69
2023/06/26 06:21:08;;;;;;;15.05;3.47;;;;;;;;;;4940183;28;20049;-67
2023/06/26 06:23:33;;;;;;;32.40;4.63;;;;;;;;;;4940498;28;20042;-70
2023/06/26 06:25:59;;;;;;;16.52;4.00;;;;;;;;;;4922599;28;20039;-69
2023/06/26 06:28:24;;;;;;;17.63;3.72;;;;;;;;;;4906020;28;20503;-69
2023/06/26 06:30:50;;;;;;;19.15;4.05;;;;;;;;;;4939970;28;22306;-67
2023/06/26 06:33:15;;;;;;;20.98;3.70;;;;;;;;;;4941250;28;20034;-68
2023/06/26 06:35:40;;;;;;;17.38;3.78;;;;;;;;;;4942712;28;20117;-69
2023/06/26 06:38:06;;;;;;;19.92;3.20;;;;;;;;;;4941950;28;20046;-67
2023/06/26 06:40:31;;;;;;;19.90;3.25;;;;;;;;;;4942036;28;20166;-69
2023/06/26 06:42:56;;;;;;;12.75;2.58;;;;;;;;;;4920783;28;20118;-70
2023/06/26 06:45:24;;;;;;;15.80;2.90;;;;;;;;;;4918767;28;20037;-71
2023/06/26 06:47:49;;;;;;;17.50;2.70;;;;;;;;;;4941381;28;20042;-73
2023/06/26 06:50:15;;;;;;;15.27;2.67;;;;;;;;;;4939111;28;20496;-71
2023/06/26 06:52:42;;;;;;;18.92;2.88;;;;;;;;;;4925026;28;20039;-69
2023/06/26 06:55:10;;;;;;;15.18;2.95;;;;;;;;;;4949329;28;20258;-71
2023/06/26 06:57:37;;;;;;;15.15;2.80;;;;;;;;;;4937861;28;20202;-71
2023/06/26 07:00:10;;;;;;;17.02;2.58;;;;;;;;;;4940473;28;20042;-71
2023/06/26 07:02:36;;;;;;;16.45;2.97;;;;;;;;;;4923212;28;20373;-69
2023/06/26 07:05:03;;;;;;;18.13;3.05;;;;;;;;;;4932705;28;20038;-70
2023/06/26 07:07:31;;;;;;;20.75;3.20;;;;;;;;;;4939864;28;20539;-71
2023/06/26 07:10:01;;;;;;;14.65;2.60;;;;;;;;;;4939787;28;20050;-69
2023/06/26 07:12:26;;;;;;;19.50;2.97;;;;;;;;;;4918001;28;20073;-72
2023/06/26 07:14:51;;;;;;;17.95;3.15;;;;;;;;;;4939412;28;20085;-68
2023/06/26 07:17:17;;;;;;;19.35;2.83;;;;;;;;;;4937789;28;20056;-69
2023/06/26 07:19:42;;;;;;;16.80;2.70;;;;;;;;;;4934542;28;20158;-68
2023/06/26 07:22:07;;;;;;;17.48;2.90;;;;;;;;;;4938481;28;20085;-69
2023/06/26 07:24:33;;;;;;;18.02;3.15;;;;;;;;;;4939010;28;21853;-67
2023/06/26 07:26:58;;;;;;;20.10;3.13;;;;;;;;;;4918179;28;20039;-70
2023/06/26 07:29:23;;;;;;;23.02;3.38;;;;;;;;;;4938976;28;20035;-69
2023/06/26 07:31:48;;;;;;;19.33;2.67;;;;;;;;;;4939704;28;20140;-69
2023/06/26 07:34:14;;;;;;;16.38;2.97;;;;;;;;;;4938984;28;20042;-69
2023/06/26 07:36:41;;;;;;;14.73;3.20;;;;;;;;;;4938834;28;20050;-71
2023/06/26 07:39:06;;;;;;;14.85;2.88;;;;;;;;;;4939196;28;20456;-68
2023/06/26 07:41:32;;;;;;;14.80;2.30;;;;;;;;;;4940388;28;20043;-67
2023/06/26 07:43:58;;;;;;;15.15;2.83;;;;;;;;;;4939490;28;20066;-69
2023/06/26 07:46:23;;;;;;;18.55;2.90;;;;;;;;;;4937914;28;20038;-68
2023/06/26 07:48:49;;;;;;;19.42;2.67;;;;;;;;;;4937630;28;20086;-68
2023/06/26 07:51:14;;;;;;;17.42;2.60;;;;;;;;;;4938038;28;20262;-69
2023/06/26 07:53:39;;;;;;;18.73;3.20;;;;;;;;;;4936905;28;20181;-68
2023/06/26 07:56:05;;;;;;;18.02;3.42;;;;;;;;;;4920546;28;20082;-69
2023/06/26 07:58:32;;;;;;;18.02;3.30;;;;;;;;;;4940579;28;20058;-69
2023/06/26 08:00:58;;;;;;;20.55;3.50;;;;;;;;;;4941160;28;20035;-67
2023/06/26 08:03:23;;;;;;;18.27;3.22;;;;;;;;;;4916661;28;20043;-68
2023/06/26 08:05:49;;;;;;;16.45;2.88;;;;;;;;;;4921189;28;20049;-70
2023/06/26 08:08:14;;;;;;;20.88;3.05;;;;;;;;;;4937607;28;20026;-68
2023/06/26 08:10:39;;;;;;;18.70;3.60;;;;;;;;;;4939516;28;21947;-67
2023/06/26 08:13:07;;;;;;;17.52;2.92;;;;;;;;;;4932739;28;20035;-68
2023/06/26 08:15:32;;;;;;;21.50;2.92;;;;;;;;;;4920092;28;20042;-67
2023/06/26 08:17:59;;;;;;;16.25;2.45;;;;;;;;;;4936823;28;20209;-69
2023/06/26 08:20:28;;;;;;;16.48;3.10;;;;;;;;;;4920597;28;20043;-69
2023/06/26 08:22:54;;;;;;;20.77;2.67;;;;;;;;;;4936934;28;20063;-68
2023/06/26 08:25:21;;;;;;;15.13;2.80;;;;;;;;;;4924917;28;20487;-67
2023/06/26 08:27:47;;;;;;;18.90;2.92;;;;;;;;;;4934924;28;20223;-70
2023/06/26 08:30:14;;;;;;;21.05;3.70;;;;;;;;;;4933247;28;20114;-69
2023/06/26 08:32:40;;;;;;;17.42;2.55;;;;;;;;;;4937058;28;20035;-67
2023/06/26 08:35:06;;;;;;;18.65;2.47;;;;;;;;;;4938011;28;20042;-67
2023/06/26 08:37:32;;;;;;;17.90;2.97;;;;;;;;;;4936727;28;20111;-67
2023/06/26 08:39:58;;;;;;;19.08;3.47;;;;;;;;;;4934653;28;20030;-68
2023/06/26 08:42:23;;;;;;;28.80;3.13;;;;;;;;;;4932774;28;20655;-68
2023/06/26 08:44:48;;;;;;;22.42;3.67;;;;;;;;;;4920170;28;20043;-69
2023/06/26 08:47:16;;;;;;;16.42;3.40;;;;;;;;;;4936990;28;20206;-69
2023/06/26 08:49:44;;;;;;;15.27;2.88;;;;;;;;;;4901526;28;20038;-66
2023/06/26 08:52:16;;;;;;;15.68;2.60;;;;;;;;;;4937310;28;20245;-68
2023/06/26 08:54:45;;;;;;;15.32;2.65;;;;;;;;;;4914164;28;20038;-68
2023/06/26 08:57:10;;;;;;;14.05;2.67;;;;;;;;;;4914943;28;22187;-66
2023/06/26 08:59:36;;;;;;;18.63;3.00;;;;;;;;;;4938350;28;20046;-68
2023/06/26 09:02:02;;;;;;;20.80;3.22;;;;;;;;;;4938266;28;20057;-66
2023/06/26 09:04:28;;;;;;;21.20;2.95;;;;;;;;;;4918652;28;20460;-68
2023/06/26 09:06:53;;;;;;;14.68;2.72;;;;;;;;;;4936080;28;20054;-69
2023/06/26 09:09:18;;;;;;;15.88;2.83;;;;;;;;;;4938266;28;20042;-69
2023/06/26 09:11:44;;;;;;;16.67;3.03;;;;;;;;;;4939063;28;20034;-69
2023/06/26 09:14:10;;;;;;;15.27;2.70;;;;;;;;;;4937667;28;20038;-68
2023/06/26 09:16:44;;;;;;;16.67;3.15;;;;;;;;;;4921449;28;20043;-67
2023/06/26 09:19:11;;;;;;;17.42;2.80;;;;;;;;;;4939589;28;20047;-66
2023/06/26 09:21:37;;;;;;;15.90;2.80;;;;;;;;;;4915925;28;20042;-68
2023/06/26 09:24:08;;;;;;;13.70;2.85;;;;;;;;;;4919283;28;20436;-68
2023/06/26 09:26:37;;;;;;;17.80;3.10;;;;;;;;;;4939128;28;20030;-68
2023/06/26 09:29:02;;;;;;;21.75;2.92;;;;;;;;;;4938936;28;20035;-67
2023/06/26 09:31:28;;;;;;;27.08;3.30;;;;;;;;;;4935032;28;21837;-67
2023/06/26 09:34:00;;;;;;;20.77;2.80;;;;;;;;;;4935943;28;20035;-68
2023/06/26 09:36:27;;;;;;;24.63;3.80;;;;;;;;;;4936551;28;20046;-67
2023/06/26 09:38:52;;;;;;;20.45;2.88;;;;;;;;;;4939947;28;20042;-67
2023/06/26 09:41:17;;;;;;;18.23;2.50;;;;;;;;;;4936620;28;20038;-65
2023/06/26 09:43:46;;;;;;;19.38;3.03;;;;;;;;;;4919695;28;22467;-70
2023/06/26 09:46:15;;;;;;;22.27;2.92;;;;;;;;;;4931667;28;20534;-66
2023/06/26 09:48:41;;;;;;;14.35;2.72;;;;;;;;;;4911778;28;20043;-66
2023/06/26 09:51:06;;;;;;;13.50;2.53;;;;;;;;;;4897755;29;20760;-67
2023/06/26 09:53:34;;;;;;;20.83;2.80;;;;;;;;;;4911534;28;21111;-68
2023/06/26 09:56:04;;;;;;;20.42;2.70;;;;;;;;;;4913751;28;20737;-67
2023/06/26 09:58:30;;;;;;;15.07;2.72;;;;;;;;;;4914224;28;20035;-66
2023/06/26 10:00:55;;;;;;;32.50;3.67;;;;;;;;;;4914900;29;20927;-68
2023/06/26 10:03:20;;;;;;;25.60;3.70;;;;;;;;;;4913236;29;20058;-66
2023/06/26 10:05:46;;;;;;;18.58;3.00;;;;;;;;;;4915973;28;20038;-67
2023/06/26 10:08:14;;;;;;;28.67;3.30;;;;;;;;;;4913127;29;20035;-67
2023/06/26 10:10:42;;;;;;;24.50;3.55;;;;;;;;;;4897331;29;20032;-72
2023/06/26 10:13:14;;;;;;;23.63;3.22;;;;;;;;;;4915474;28;20043;-69
2023/06/26 10:15:41;;;;;;;17.33;3.10;;;;;;;;;;4882351;28;22006;-68
2023/06/26 10:18:07;;;;;;;19.08;3.40;;;;;;;;;;4924024;28;20881;-66
2023/06/26 10:20:33;;;;;;;19.88;2.80;;;;;;;;;;4934415;28;20042;-67
2023/06/26 10:23:00;;;;;;;20.98;3.13;;;;;;;;;;4934001;28;20579;-68
2023/06/26 10:25:26;;;;;;;15.55;2.97;;;;;;;;;;4915217;28;20031;-69
2023/06/26 10:27:54;;;;;;;15.85;2.75;;;;;;;;;;4925782;28;20203;-67
2023/06/26 10:30:21;;;;;;;17.88;2.53;;;;;;;;;;4930460;28;20070;-67
2023/06/26 10:32:47;;;;;;;19.85;3.00;;;;;;;;;;4933093;28;20318;-67
2023/06/26 10:35:12;;;;;;;17.92;3.22;;;;;;;;;;4932253;28;20046;-67
2023/06/26 10:37:41;;;;;;;21.58;3.13;;;;;;;;;;4936522;28;20054;-66
2023/06/26 10:40:06;;;;;;;16.83;2.92;;;;;;;;;;4933189;28;20122;-67
2023/06/26 10:42:35;;;;;;;18.42;3.42;;;;;;;;;;4935769;28;20113;-67
2023/06/26 10:45:13;;;;;;;23.13;2.83;;;;;;;;;;4935863;28;20039;-68
2023/06/26 10:47:40;;;;;;;17.05;2.92;;;;;;;;;;4920777;28;20668;-68
2023/06/26 10:50:23;;;;;;;22.52;3.15;;;;;;;;;;4923094;28;20039;-69
2023/06/26 10:53:07;;;;;;;18.00;2.53;;;;;;;;;;4939112;28;20163;-66
2023/06/26 10:55:33;;;;;;;21.70;4.70;;;;;;;;;;4938989;28;20039;-68
2023/06/26 10:57:58;;;;;;;23.88;2.88;;;;;;;;;;4938623;28;20133;-67
2023/06/26 11:00:23;;;;;;;26.63;3.25;;;;;;;;;;4937870;28;20212;-67
2023/06/26 11:02:52;;;;;;;24.30;3.17;;;;;;;;;;4922099;28;20030;-66
2023/06/26 11:05:26;;;;;;;18.83;2.45;;;;;;;;;;4939086;28;20042;-67
2023/06/26 11:08:05;;;;;;;26.77;3.58;;;;;;;;;;4938492;28;20351;-69
2023/06/26 11:10:47;;;;;;;14.93;2.70;;;;;;;;;;4936576;28;20570;-67
2023/06/26 11:13:15;;;;;;;20.80;3.22;;;;;;;;;;4919131;28;20413;-67
2023/06/26 11:15:44;;;;;;;22.70;3.03;;;;;;;;;;4938999;28;20530;-68
2023/06/26 11:18:09;;;;;;;18.58;2.65;;;;;;;;;;4937874;28;20665;-67
2023/06/26 11:20:35;;;;;;;22.45;2.63;;;;;;;;;;4938693;28;20049;-69
2023/06/26 11:23:03;;;;;;;19.00;2.88;;;;;;;;;;4938313;28;20040;-68
2023/06/26 11:25:35;;;;;;;17.67;3.08;;;;;;;;;;4938666;28;20061;-68
2023/06/26 11:28:00;;;;;;;17.00;2.70;;;;;;;;;;4939160;28;20039;-67
2023/06/26 11:30:26;;;;;;;24.02;3.25;;;;;;;;;;4938383;28;20031;-66
2023/06/26 11:32:51;;;;;;;17.08;2.90;;;;;;;;;;4937105;28;20035;-67
2023/06/26 11:35:30;;;;;;;19.60;3.50;;;;;;;;;;4939151;28;20339;-66
2023/06/26 11:37:56;;;;;;;23.92;3.40;;;;;;;;;;4919507;28;20549;-67
2023/06/26 11:40:26;;;;;;;24.85;3.40;;;;;;;;;;4937460;28;20205;-66
2023/06/26 11:42:52;;;;;;;20.75;3.13;;;;;;;;;;4937552;28;20519;-66
2023/06/26 11:45:17;;;;;;;15.45;2.47;;;;;;;;;;4938469;28;20125;-69
2023/06/26 11:47:43;;;;;;;16.15;2.90;;;;;;;;;;4920423;28;20047;-66
2023/06/26 11:50:14;;;;;;;12.00;2.80;;;;;;;;;;4938528;28;20061;-66
2023/06/26 11:52:41;;;;;;;17.92;3.00;;;;;;;;;;4936821;28;20043;-70
2023/06/26 11:55:06;;;;;;;15.35;3.17;;;;;;;;;;4939627;28;20042;-69
2023/06/26 11:57:32;;;;;;;17.27;3.10;;;;;;;;;;4934778;28;20190;-68
2023/06/26 11:59:57;;;;;;;19.67;3.00;;;;;;;;;;4935915;28;20046;-69
2023/06/26 12:02:22;;;;;;;13.30;3.00;;;;;;;;;;4937580;28;20122;-69
2023/06/26 12:04:48;;;;;;;8.60;2.60;;;;;;;;;;4938240;28;20053;-67
2023/06/26 12:07:14;;;;;;;18.17;3.17;;;;;;;;;;4936481;28;20035;-68
2023/06/26 12:09:40;;;;;;;16.55;3.10;;;;;;;;;;4920393;28;21909;-69
2023/06/26 12:12:06;;;;;;;16.13;2.80;;;;;;;;;;4938085;28;20043;-67
2023/06/26 12:14:32;;;;;;;17.15;2.65;;;;;;;;;;4939539;28;20050;-66
2023/06/26 12:17:04;;;;;;;16.35;2.88;;;;;;;;;;4915870;28;20081;-66
2023/06/26 12:19:29;;;;;;;15.40;2.78;;;;;;;;;;4938023;28;20262;-69
2023/06/26 12:21:56;;;;;;;21.75;2.72;;;;;;;;;;4937174;28;20435;-67
2023/06/26 12:24:22;;;;;;;14.55;2.40;;;;;;;;;;4936672;28;20154;-68
2023/06/26 12:26:56;;;;;;;18.67;2.95;;;;;;;;;;4932898;28;20247;-69
2023/06/26 12:29:28;;;;;;;17.88;2.70;;;;;;;;;;4936874;28;20035;-66
2023/06/26 12:31:54;;;;;;;15.57;2.67;;;;;;;;;;4938312;28;20057;-66
2023/06/26 12:34:27;;;;;;;14.73;2.67;;;;;;;;;;4937590;28;20031;-69
2023/06/26 12:36:53;;;;;;;15.45;2.67;;;;;;;;;;4938711;28;20053;-68
2023/06/26 12:39:21;;;;;;;16.20;2.55;;;;;;;;;;4937459;28;20042;-66
2023/06/26 12:42:02;;;;;;;17.77;2.90;;;;;;;;;;4938267;28;20337;-67
2023/06/26 12:44:28;;;;;;;11.07;2.35;;;;;;;;;;4937880;28;20049;-65
2023/06/26 12:46:55;;;;;;;19.27;3.10;;;;;;;;;;4933755;28;20047;-68
2023/06/26 12:49:20;;;;;;;20.98;2.80;;;;;;;;;;4917595;28;20066;-65
2023/06/26 12:51:46;;;;;;;14.65;2.72;;;;;;;;;;4921653;28;20039;-66
2023/06/26 12:54:13;;;;;;;18.45;2.60;;;;;;;;;;4939096;28;20057;-66
2023/06/26 12:56:38;;;;;;;18.33;2.72;;;;;;;;;;4937179;28;20218;-67
2023/06/26 12:59:04;;;;;;;9.50;2.10;;;;;;;;;;4919469;28;20053;-65
2023/06/26 13:01:30;;;;;;;12.80;2.58;;;;;;;;;;4938635;28;20694;-65
2023/06/26 13:03:55;;;;;;;10.52;2.42;;;;;;;;;;4937795;28;20038;-66
2023/06/26 13:06:20;;;;;;;16.42;2.58;;;;;;;;;;4917313;28;20035;-66
2023/06/26 13:08:46;;;;;;;8.68;1.88;;;;;;;;;;4936611;28;20039;-66
2023/06/26 13:11:11;;;;;;;11.73;2.42;;;;;;;;;;4937599;28;20034;-68
2023/06/26 13:13:36;;;;;;;8.63;2.38;;;;;;;;;;4938289;28;20036;-65
2023/06/26 13:16:02;;;;;;;10.48;2.25;;;;;;;;;;4939562;28;21774;-66
2023/06/26 13:18:27;;;;;;;13.27;2.35;;;;;;;;;;4932318;28;20070;-67
2023/06/26 13:20:52;;;;;;;11.90;2.10;;;;;;;;;;4937793;28;20528;-68
2023/06/26 13:23:19;;;;;;;11.02;2.30;;;;;;;;;;4938147;28;20591;-67
2023/06/26 13:25:44;;;;;;;12.75;2.55;;;;;;;;;;4937644;28;20688;-67
2023/06/26 13:28:10;;;;;;;10.85;2.30;;;;;;;;;;4937353;28;20047;-67
2023/06/26 13:30:35;;;;;;;16.83;2.83;;;;;;;;;;4937882;28;20287;-66
2023/06/26 13:33:00;;;;;;;14.57;2.53;;;;;;;;;;4938228;28;20096;-68
2023/06/26 13:35:26;;;;;;;13.95;2.17;;;;;;;;;;4901268;28;20396;-67
2023/06/26 13:37:51;;;;;;;7.63;1.90;;;;;;;;;;4938064;28;20504;-68
2023/06/26 13:40:16;;;;;;;12.88;2.08;;;;;;;;;;4937180;28;20062;-67
2023/06/26 13:42:44;;;;;;;6.97;1.80;;;;;;;;;;4932414;28;20035;-68
2023/06/26 13:45:09;;;;;;;12.57;2.40;;;;;;;;;;4934759;28;20651;-67
2023/06/26 13:47:34;;;;;;;9.70;2.08;;;;;;;;;;4932273;28;20160;-66
2023/06/26 13:50:00;;;;;;;7.90;1.80;;;;;;;;;;4930725;28;20659;-68
2023/06/26 13:52:25;;;;;;;13.52;2.28;;;;;;;;;;4935574;28;20057;-67
2023/06/26 13:54:51;;;;;;;12.43;2.20;;;;;;;;;;4915767;28;20349;-67
2023/06/26 13:57:16;;;;;;;9.70;1.77;;;;;;;;;;4933409;28;20168;-67
2023/06/26 13:59:42;;;;;;;6.20;1.48;;;;;;;;;;4935979;28;20043;-70
2023/06/26 14:02:08;;;;;;;8.05;1.98;;;;;;;;;;4935279;28;20632;-69
2023/06/26 14:04:33;;;;;;;9.45;2.15;;;;;;;;;;4915608;28;20054;-69
2023/06/26 14:07:06;;;;;;;8.57;1.98;;;;;;;;;;4937804;28;20058;-68
2023/06/26 14:09:32;;;;;;;9.05;1.95;;;;;;;;;;4937752;28;20548;-70
2023/06/26 14:11:57;;;;;;;9.52;2.00;;;;;;;;;;4941275;28;20038;-68
2023/06/26 14:14:23;;;;;;;10.32;1.75;;;;;;;;;;4942361;28;20034;-65
2023/06/26 14:16:50;;;;;;;9.35;2.53;;;;;;;;;;4941151;28;20046;-69
2023/06/26 14:19:17;;;;;;;9.52;2.00;;;;;;;;;;4943052;28;20035;-70
2023/06/26 14:21:42;;;;;;;7.00;1.88;;;;;;;;;;4941882;28;20101;-68
2023/06/26 14:24:10;;;;;;;9.80;2.05;;;;;;;;;;4943177;28;20149;-67
2023/06/26 14:26:36;;;;;;;7.68;1.70;;;;;;;;;;4942819;28;21004;-68